Nathan Golding — WDD8656 — position and weather

sailwx.info

Track history (hours):
 
Tides and Currents Weather Stations Pressure Air Temp Water Temp Dewpoint Dewpoint Depression Visibility Wind Speed Wind Dir Waves Ship Positions

Nathan Golding

Owner: Golding Barge Line, Inc., VICKSBURG, MS. More information available from US FCC via Universal Licensing System and Coast Guard Vessel Documentation Center.

Last reported at 2017-Nov-18 19:30 UTC. Time now 2017-Nov-21 14:00 UTC.
Position N 29°46' W 095°06'.

Length 21 m; draft 2.5 m.

Type: Towing. MMSI: 367301010.

Date/timePositionNaut miles runAvg speedWind from/ knotsBaromVisibWave heightAir tempDewpointWater temp
2017-Nov-18 19:30N 29°46' W 095°06'6 0.2
2017-Nov-17 10:22N 29°44' W 095°12'0 0.2
2017-Nov-17 10:00N 29°44' W 095°12'0 0.0
2017-Nov-17 04:52N 29°44' W 095°12'0 0.0
2017-Nov-17 04:30N 29°44' W 095°12'0 0.0
2017-Nov-17 04:00N 29°44' W 095°12'0 0.0
2017-Nov-17 03:30N 29°44' W 095°12'0 0.0
2017-Nov-17 03:00N 29°44' W 095°12'0 0.0
2017-Nov-17 02:29N 29°44' W 095°12'0 0.0
2017-Nov-17 01:19N 29°44' W 095°12'0 0.0
2017-Nov-16 17:46N 29°44' W 095°12'6 0.2
2017-Nov-15 09:52N 29°46' W 095°06'0 0.0
2017-Nov-15 09:01N 29°46' W 095°06'3 0.1
2017-Nov-14 11:32N 29°44' W 095°08'0 7.2
2017-Nov-14 11:30N 29°44' W 095°08'2 3.0
2017-Nov-14 11:00N 29°44' W 095°10'0 0.0
2017-Nov-14 10:30N 29°44' W 095°10'0 0.0
2017-Nov-14 10:00N 29°44' W 095°10'0 0.0
2017-Nov-14 09:30N 29°44' W 095°10'0 0.0
2017-Nov-14 09:00N 29°44' W 095°10'0 0.0
2017-Nov-14 08:30N 29°44' W 095°10'0 0.0
2017-Nov-14 07:59N 29°44' W 095°10'0 0.0
2017-Nov-14 07:30N 29°44' W 095°10'0 0.0
2017-Nov-14 07:00N 29°44' W 095°10'0 0.0
2017-Nov-14 06:30N 29°44' W 095°10'0 0.0
2017-Nov-14 05:05N 29°44' W 095°10'0 0.0
2017-Nov-14 04:59N 29°44' W 095°10'0 0.0
2017-Nov-14 04:30N 29°44' W 095°10'0 0.0
2017-Nov-14 04:00N 29°44' W 095°10'0 0.0
2017-Nov-14 03:24N 29°44' W 095°10'0 0.0
2017-Nov-14 02:55N 29°44' W 095°10'0 0.0
2017-Nov-14 02:30N 29°44' W 095°10'0 0.0
2017-Nov-14 02:00N 29°44' W 095°10'0 0.0
2017-Nov-14 01:30N 29°44' W 095°10'0 0.0
2017-Nov-14 01:00N 29°44' W 095°10'0 0.0
2017-Nov-14 00:29N 29°44' W 095°10'0 0.0
2017-Nov-13 23:53N 29°44' W 095°10'4 0.2
2017-Nov-13 02:00N 29°46' W 095°06'0 0.0
2017-Nov-13 01:29N 29°46' W 095°06'0 0.0
2017-Nov-13 01:00N 29°46' W 095°06'0 0.0
2017-Nov-13 00:30N 29°46' W 095°06'1 0.2
2017-Nov-12 19:35N 29°46' W 095°07'0 0.0
2017-Nov-12 19:24N 29°46' W 095°07'2 1.6
2017-Nov-12 18:19N 29°44' W 095°08'3 8.0
2017-Nov-12 17:56N 29°45' W 095°11'1 1.2
2017-Nov-12 16:58N 29°44' W 095°12'0 0.0
2017-Nov-12 16:24N 29°44' W 095°12'0 0.0
2017-Nov-12 15:59N 29°44' W 095°12'0 0.0
2017-Nov-12 15:30N 29°44' W 095°12'0 0.0
2017-Nov-12 15:00N 29°44' W 095°12'0 0.0
2017-Nov-12 14:30N 29°44' W 095°12'0 0.0
2017-Nov-12 13:59N 29°44' W 095°12'0 0.0
2017-Nov-12 13:30N 29°44' W 095°12'0 0.0
2017-Nov-12 12:58N 29°44' W 095°12'0 0.0
2017-Nov-12 12:28N 29°44' W 095°12'0 0.0
2017-Nov-12 11:59N 29°44' W 095°12'0 0.0
2017-Nov-12 11:30N 29°44' W 095°12'0 0.0
2017-Nov-12 11:00N 29°44' W 095°12'0 0.0
2017-Nov-12 10:30N 29°44' W 095°12'0 0.0
2017-Nov-12 10:00N 29°44' W 095°12'0 0.0
2017-Nov-12 09:29N 29°44' W 095°12'0 0.0
2017-Nov-12 09:00N 29°44' W 095°12'0 0.0
2017-Nov-12 08:30N 29°44' W 095°12'0 0.0
2017-Nov-12 08:00N 29°44' W 095°12'0 0.0
2017-Nov-12 07:28N 29°44' W 095°12'0 0.0
2017-Nov-12 06:59N 29°44' W 095°12'0 0.0
2017-Nov-12 06:21N 29°44' W 095°12'0 0.0
2017-Nov-12 05:58N 29°44' W 095°12'0 0.0
2017-Nov-12 05:16N 29°44' W 095°12'0 0.0
2017-Nov-12 05:00N 29°44' W 095°12'0 0.0
2017-Nov-11 20:05N 29°44' W 095°12'0 0.0
2017-Nov-11 19:47N 29°44' W 095°12'2 5.4
2017-Nov-11 19:25N 29°45' W 095°10'3 6.9
2017-Nov-11 18:57N 29°44' W 095°07'1 0.1
2017-Nov-11 06:20N 29°44' W 095°08'3 7.0
2017-Nov-11 05:58N 29°45' W 095°11'1 0.0
2017-Nov-10 14:42N 29°45' W 095°10'6 5.9
2017-Nov-10 13:41N 29°47' W 095°04'2 0.1
2017-Nov-08 22:25N 29°46' W 095°05'3 7.1
2017-Nov-08 21:59N 29°44' W 095°08'1 2.6
2017-Nov-08 21:26N 29°44' W 095°10'0 0.0
2017-Nov-08 21:00N 29°44' W 095°10'0 0.0
2017-Nov-08 20:29N 29°44' W 095°10'0 0.0
2017-Nov-08 20:00N 29°44' W 095°10'  
Track history (hours):
 
Tides and Currents Weather Stations Pressure Air Temp Water Temp Dewpoint Dewpoint Depression Visibility Wind Speed Wind Dir Waves Ship Positions

Nathan Golding

Owner: Golding Barge Line, Inc., VICKSBURG, MS. More information available from US FCC via Universal Licensing System and Coast Guard Vessel Documentation Center.

Last reported at 2017-Nov-18 19:30 UTC. Time now 2017-Nov-21 14:00 UTC.
Position N 29°46' W 095°06'.

Length 21 m; draft 2.5 m.

Type: Towing. MMSI: 367301010.

Date/timePositionNaut miles runAvg speedWind from/ knotsBaromVisibWave heightAir tempDewpointWater temp
2017-Nov-18 19:30N 29°46' W 095°06'6 0.2
2017-Nov-17 10:22N 29°44' W 095°12'0 0.2
2017-Nov-17 10:00N 29°44' W 095°12'0 0.0
2017-Nov-17 04:52N 29°44' W 095°12'0 0.0
2017-Nov-17 04:30N 29°44' W 095°12'0 0.0
2017-Nov-17 04:00N 29°44' W 095°12'0 0.0
2017-Nov-17 03:30N 29°44' W 095°12'0 0.0
2017-Nov-17 03:00N 29°44' W 095°12'0 0.0
2017-Nov-17 02:29N 29°44' W 095°12'0 0.0
2017-Nov-17 01:19N 29°44' W 095°12'0 0.0
2017-Nov-16 17:46N 29°44' W 095°12'6 0.2
2017-Nov-15 09:52N 29°46' W 095°06'0 0.0
2017-Nov-15 09:01N 29°46' W 095°06'3 0.1
2017-Nov-14 11:32N 29°44' W 095°08'0 7.2
2017-Nov-14 11:30N 29°44' W 095°08'2 3.0
2017-Nov-14 11:00N 29°44' W 095°10'0 0.0
2017-Nov-14 10:30N 29°44' W 095°10'0 0.0
2017-Nov-14 10:00N 29°44' W 095°10'0 0.0
2017-Nov-14 09:30N 29°44' W 095°10'0 0.0
2017-Nov-14 09:00N 29°44' W 095°10'0 0.0
2017-Nov-14 08:30N 29°44' W 095°10'0 0.0
2017-Nov-14 07:59N 29°44' W 095°10'0 0.0
2017-Nov-14 07:30N 29°44' W 095°10'0 0.0
2017-Nov-14 07:00N 29°44' W 095°10'0 0.0
2017-Nov-14 06:30N 29°44' W 095°10'0 0.0
2017-Nov-14 05:05N 29°44' W 095°10'0 0.0
2017-Nov-14 04:59N 29°44' W 095°10'0 0.0
2017-Nov-14 04:30N 29°44' W 095°10'0 0.0
2017-Nov-14 04:00N 29°44' W 095°10'0 0.0
2017-Nov-14 03:24N 29°44' W 095°10'0 0.0
2017-Nov-14 02:55N 29°44' W 095°10'0 0.0
2017-Nov-14 02:30N 29°44' W 095°10'0 0.0
2017-Nov-14 02:00N 29°44' W 095°10'0 0.0
2017-Nov-14 01:30N 29°44' W 095°10'0 0.0
2017-Nov-14 01:00N 29°44' W 095°10'0 0.0
2017-Nov-14 00:29N 29°44' W 095°10'0 0.0
2017-Nov-13 23:53N 29°44' W 095°10'4 0.2
2017-Nov-13 02:00N 29°46' W 095°06'0 0.0
2017-Nov-13 01:29N 29°46' W 095°06'0 0.0
2017-Nov-13 01:00N 29°46' W 095°06'0 0.0
2017-Nov-13 00:30N 29°46' W 095°06'1 0.2
2017-Nov-12 19:35N 29°46' W 095°07'0 0.0
2017-Nov-12 19:24N 29°46' W 095°07'2 1.6
2017-Nov-12 18:19N 29°44' W 095°08'3 8.0
2017-Nov-12 17:56N 29°45' W 095°11'1 1.2
2017-Nov-12 16:58N 29°44' W 095°12'0 0.0
2017-Nov-12 16:24N 29°44' W 095°12'0 0.0
2017-Nov-12 15:59N 29°44' W 095°12'0 0.0
2017-Nov-12 15:30N 29°44' W 095°12'0 0.0
2017-Nov-12 15:00N 29°44' W 095°12'0 0.0
2017-Nov-12 14:30N 29°44' W 095°12'0 0.0
2017-Nov-12 13:59N 29°44' W 095°12'0 0.0
2017-Nov-12 13:30N 29°44' W 095°12'0 0.0
2017-Nov-12 12:58N 29°44' W 095°12'0 0.0
2017-Nov-12 12:28N 29°44' W 095°12'0 0.0
2017-Nov-12 11:59N 29°44' W 095°12'0 0.0
2017-Nov-12 11:30N 29°44' W 095°12'0 0.0
2017-Nov-12 11:00N 29°44' W 095°12'0 0.0
2017-Nov-12 10:30N 29°44' W 095°12'0 0.0
2017-Nov-12 10:00N 29°44' W 095°12'0 0.0
2017-Nov-12 09:29N 29°44' W 095°12'0 0.0
2017-Nov-12 09:00N 29°44' W 095°12'0 0.0
2017-Nov-12 08:30N 29°44' W 095°12'0 0.0
2017-Nov-12 08:00N 29°44' W 095°12'0 0.0
2017-Nov-12 07:28N 29°44' W 095°12'0 0.0
2017-Nov-12 06:59N 29°44' W 095°12'0 0.0
2017-Nov-12 06:21N 29°44' W 095°12'0 0.0
2017-Nov-12 05:58N 29°44' W 095°12'0 0.0
2017-Nov-12 05:16N 29°44' W 095°12'0 0.0
2017-Nov-12 05:00N 29°44' W 095°12'0 0.0
2017-Nov-11 20:05N 29°44' W 095°12'0 0.0
2017-Nov-11 19:47N 29°44' W 095°12'2 5.4
2017-Nov-11 19:25N 29°45' W 095°10'3 6.9
2017-Nov-11 18:57N 29°44' W 095°07'1 0.1
2017-Nov-11 06:20N 29°44' W 095°08'3 7.0
2017-Nov-11 05:58N 29°45' W 095°11'1 0.0
2017-Nov-10 14:42N 29°45' W 095°10'6 5.9
2017-Nov-10 13:41N 29°47' W 095°04'2 0.1
2017-Nov-08 22:25N 29°46' W 095°05'3 7.1
2017-Nov-08 21:59N 29°44' W 095°08'1 2.6
2017-Nov-08 21:26N 29°44' W 095°10'0 0.0
2017-Nov-08 21:00N 29°44' W 095°10'0 0.0
2017-Nov-08 20:29N 29°44' W 095°10'0 0.0
2017-Nov-08 20:00N 29°44' W 095°10'  

Dump ship's entire track history